FVLA weather

Langford Airport
Langford, Mashonaland East Province, Zimbabwe

Public forecast

Using degrees Celsius for public forecast. Weather courtesy of forecast.io.

METAR (pilot weather report)

Closest report is Robert Gabriel Mugabe International Airport, 8.2 nm (15.1 km) E. Retrieved 2019/04/18 17:00 UTC (2 hours ago):

FVRG 181700Z 06003KT 9999 FEW020TCU BKN080 17/16 Q1026 NOSIG

TAF (pilot weather forecast)

Forecast is more than 12 hours old.

Closest forecast is Robert Gabriel Mugabe International Airport, 8.2 nm (15.1 km) E. Retrieved 2019/04/17 12:00 UTC (1 day ago):

TAF FVRG 171000Z 1712/1818 08010KT 9999 BKN045TCU BKN080 PROB30 TEMPO 1712/1718 8000 -TSRA FEW045CB BKN080 FM172000 /////KT CAVOK BECMG 1807/1809 9999 SCT030 PROB30 TEMPO 1811/1817 9000 -SHRA BKN045TCU